Aérodrome :
LOGIN :

S'inscrire | Disclaimer

   EN    FR    IT 

 










Légende :    VFR   VFR Marginal   IFR   IFR Intensif   IFR Très Intensif
Visi : 
Plafond : 
>= 8 km
>= 3000ft
5 à 8 km
1000 à 3000 ft
1500m à 5 km
500 à 1000 ft
800 à 1500m
200 à 500 ft
< 800m
< 200 ft
Symboles :   Orages  Brouillard  Fortes neiges  Fortes précipitations  Vent > 20 kt
SIGMETs :   Divers  Orages  Givrage  Turbulence  Onde Orograph.  Cendres Volcan.







- Altitude de l'aérodrome : 489 ft
- Code IATA : GDN


EPGD - Gdansk

DERNIER METAR :
  • 220130Z 26014KT 9999 FEW032 SCT041 09/07 Q1008

METARs EXPIRÉS :
  • 220100Z 26016KT CAVOK 09/06 Q1007
  • 220030Z 26015KT 230V290 CAVOK 09/06 Q1007
  • 220000Z 25014KT 9999 FEW035 10/07 Q1007
  • 212330Z 25015KT CAVOK 10/07 Q1007
  • 212300Z 26015KT CAVOK 10/07 Q1007

TAF AMD TAF EPGD
Valide du 22 à 00h jusqu'au 23 à 00h UTC


212347Z 2200/2224 27012KT 9999 SCT035
TEMPO 2200/2224 27016G27KT
PROB40
TEMPO 2200/2207 SHRA BKN012 BKN020CB
PROB40
TEMPO 2211/2219 4000 TSRA BKN020CB
Pas de NOTAMs connus pour ce terrain.
1 SIGMET publié pour la FIR Warszawa (EPWW) :
 
Orages noyés dans la masse
EPWW SIGMET 4 VALID 212240/220400 EPWA
EPWW WARSAW FIR EMBD TS OBS S OF LINE N5000 E02310 - N5020 E01850 - N4950 E01810 TOP FL350 MOV NE NC=



MET'MAP, la Météo Aéronautique d'un coup d'oeil ! - Copyright ORBIFLY Décembre 2007 - Disclaimer

ORBIFLY MET'MAP TEAM :

Programmation & Développement : Alexandra Zaïnal
Conception & Développement : Baudouin d'Aumeries
Co-Programmation & Développement : Marc-Olivier Méhu
Soutien technique & logistique : Manuel Goepfert

Contact : metmap@orbifly.com




SOURCES & CREDITS :

   NOAA